createdAt,value
2019-03-19T00:00:32.502Z,61.80
2019-03-19T00:02:58.653Z,58.20
2019-03-19T00:05:25.468Z,59.90
2019-03-19T00:07:51.681Z,58.80
2019-03-19T00:10:17.906Z,59.90
2019-03-19T00:12:44.213Z,59.60
2019-03-19T00:15:10.625Z,63.60
2019-03-19T00:17:36.845Z,60.60
2019-03-19T00:20:11.364Z,62.60
2019-03-19T00:22:37.578Z,62.10
2019-03-19T00:25:03.915Z,60.00
2019-03-19T00:27:30.163Z,60.20
2019-03-19T00:29:56.378Z,61.00
2019-03-19T00:32:22.615Z,62.90
2019-03-19T00:34:49.025Z,59.80
2019-03-19T00:37:15.230Z,58.30
2019-03-19T00:39:41.451Z,60.30
2019-03-19T00:42:07.673Z,60.00
2019-03-19T00:44:33.885Z,60.40
2019-03-19T00:47:00.101Z,59.80
2019-03-19T00:49:26.337Z,59.30
2019-03-19T00:51:52.549Z,61.00
2019-03-19T00:54:18.767Z,61.60
2019-03-19T00:56:45.004Z,64.60
2019-03-19T00:59:11.225Z,63.60
2019-03-19T01:01:38.860Z,66.20
2019-03-19T01:04:05.277Z,66.30
2019-03-19T01:06:31.554Z,62.70
2019-03-19T01:08:57.866Z,64.80
2019-03-19T01:11:24.106Z,65.60
2019-03-19T01:13:50.349Z,63.30
2019-03-19T01:16:16.572Z,64.30
2019-03-19T01:18:42.808Z,62.30
2019-03-19T01:21:09.017Z,62.80
2019-03-19T01:23:35.225Z,60.60
2019-03-19T01:26:01.550Z,63.20
2019-03-19T01:28:27.765Z,61.60
2019-03-19T01:30:53.987Z,60.20
2019-03-19T01:33:20.229Z,60.90
2019-03-19T01:35:46.441Z,65.10
2019-03-19T01:38:12.724Z,62.40
2019-03-19T01:40:39.049Z,61.50
2019-03-19T01:43:05.279Z,60.70
2019-03-19T01:45:31.500Z,61.00
2019-03-19T01:47:57.838Z,63.00
2019-03-19T01:50:24.054Z,59.80
2019-03-19T01:52:50.265Z,60.90
2019-03-19T01:55:16.510Z,59.00
2019-03-19T01:57:42.816Z,60.40
2019-03-19T02:00:13.298Z,59.30
2019-03-19T02:02:39.545Z,58.70
2019-03-19T02:05:06.065Z,59.10
2019-03-19T02:07:32.276Z,59.20
2019-03-19T02:09:58.584Z,60.60
2019-03-19T02:12:24.797Z,60.00
2019-03-19T02:14:51.014Z,61.70
2019-03-19T02:17:17.273Z,62.20
2019-03-19T02:19:43.481Z,61.80
2019-03-19T02:22:09.720Z,63.00
2019-03-19T02:24:35.957Z,61.70
2019-03-19T02:27:02.173Z,61.30
2019-03-19T02:29:28.390Z,62.00
2019-03-19T02:31:54.729Z,62.10
2019-03-19T02:34:20.951Z,62.40
2019-03-19T02:36:47.161Z,62.10
2019-03-19T02:39:13.396Z,62.90
2019-03-19T02:41:39.679Z,64.30
2019-03-19T02:44:05.998Z,64.50
2019-03-19T02:46:32.229Z,63.30
2019-03-19T02:48:58.530Z,61.60
2019-03-19T02:51:24.846Z,64.20
2019-03-19T02:53:51.286Z,61.20
2019-03-19T02:56:32.007Z,63.30
2019-03-19T02:58:45.737Z,62.40
2019-03-19T03:01:12.077Z,63.70
2019-03-19T03:03:38.302Z,65.80
2019-03-19T03:06:04.597Z,64.90
2019-03-19T03:08:31.840Z,65.90
2019-03-19T03:10:58.055Z,65.90
2019-03-19T03:13:24.334Z,64.20
2019-03-19T03:15:50.616Z,63.30
2019-03-19T03:18:17.029Z,64.20
2019-03-19T03:20:43.287Z,64.00
2019-03-19T03:23:09.593Z,64.80
2019-03-19T03:25:35.833Z,64.10
2019-03-19T03:28:02.149Z,65.40
2019-03-19T03:30:28.394Z,66.80
2019-03-19T03:32:54.702Z,66.50
2019-03-19T03:35:21.014Z,66.80
2019-03-19T03:37:47.343Z,65.80
2019-03-19T03:40:14.760Z,61.50
2019-03-19T03:42:43.026Z,59.30
2019-03-19T03:45:10.789Z,60.60
2019-03-19T03:47:37.014Z,62.50
2019-03-19T03:50:06.434Z,63.20
2019-03-19T03:52:32.766Z,63.90
2019-03-19T03:54:58.980Z,62.60
2019-03-19T03:57:25.298Z,62.70
2019-03-19T03:59:51.745Z,61.70
2019-03-19T04:02:18.062Z,61.20
2019-03-19T04:04:44.366Z,60.60
2019-03-19T04:07:10.678Z,60.80
2019-03-19T04:09:36.995Z,62.00
2019-03-19T04:12:03.298Z,62.10
2019-03-19T04:14:29.639Z,63.70
2019-03-19T04:16:55.960Z,65.30
2019-03-19T04:19:22.198Z,66.40
2019-03-19T04:21:48.421Z,67.30
2019-03-19T04:24:14.645Z,67.40
2019-03-19T04:26:40.969Z,67.20
2019-03-19T04:29:07.301Z,66.70
2019-03-19T04:31:33.512Z,66.20
2019-03-19T04:33:59.923Z,66.30
2019-03-19T04:36:26.177Z,66.90
2019-03-19T04:38:52.494Z,67.70
2019-03-19T04:41:19.817Z,67.10
2019-03-19T04:43:46.062Z,67.40
2019-03-19T04:46:12.270Z,67.90
2019-03-19T04:48:38.482Z,68.40
2019-03-19T04:51:04.718Z,68.90
2019-03-19T04:53:30.932Z,69.50
2019-03-19T04:55:57.160Z,69.50
2019-03-19T04:58:23.480Z,69.60
2019-03-19T05:00:49.706Z,69.50
2019-03-19T05:03:15.921Z,69.30
2019-03-19T05:05:42.160Z,69.50
2019-03-19T05:08:08.378Z,69.60
2019-03-19T05:10:34.592Z,69.50
2019-03-19T05:13:00.944Z,69.50
2019-03-19T05:15:27.429Z,69.50
2019-03-19T05:17:53.747Z,69.70
2019-03-19T05:20:20.065Z,70.00
2019-03-19T05:22:46.274Z,69.90
2019-03-19T05:25:12.486Z,70.20
2019-03-19T05:27:38.790Z,70.90
2019-03-19T05:30:15.273Z,70.80
2019-03-19T05:32:41.490Z,70.90
2019-03-19T05:35:08.219Z,70.40
2019-03-19T05:37:34.517Z,70.30
2019-03-19T05:40:00.837Z,70.20
2019-03-19T05:42:27.045Z,70.20
2019-03-19T05:44:53.265Z,70.00
2019-03-19T05:47:19.569Z,70.10
2019-03-19T05:49:45.776Z,70.30
2019-03-19T05:52:11.985Z,70.40
2019-03-19T05:54:39.395Z,71.10
2019-03-19T05:57:05.709Z,71.70
2019-03-19T05:59:31.929Z,72.70
2019-03-19T06:01:58.174Z,72.90
2019-03-19T06:04:24.377Z,72.30
2019-03-19T06:06:50.609Z,71.90
2019-03-19T06:09:16.845Z,72.40
2019-03-19T06:11:43.062Z,72.00
2019-03-19T06:14:09.272Z,71.60
2019-03-19T06:16:35.493Z,71.30
2019-03-19T06:19:01.809Z,71.00
2019-03-19T06:21:28.021Z,71.10
2019-03-19T06:23:54.250Z,71.00
2019-03-19T06:26:20.466Z,71.00
2019-03-19T06:28:46.673Z,70.50
2019-03-19T06:31:12.896Z,69.90
2019-03-19T06:33:39.105Z,69.80
2019-03-19T06:36:05.317Z,69.10
2019-03-19T06:38:31.660Z,68.10
2019-03-19T06:40:57.975Z,67.30
2019-03-19T06:43:24.284Z,66.60
2019-03-19T06:45:50.552Z,65.30
2019-03-19T06:48:16.820Z,64.20
2019-03-19T06:50:45.500Z,63.30
2019-03-19T06:53:11.025Z,62.00
2019-03-19T06:55:37.258Z,60.20
2019-03-19T06:58:10.900Z,59.00
2019-03-19T07:00:31.533Z,57.80
2019-03-19T07:02:57.753Z,56.30
2019-03-19T07:05:23.981Z,55.10
2019-03-19T07:07:50.229Z,54.20
2019-03-19T07:10:17.361Z,53.90
2019-03-19T07:12:43.582Z,53.70
2019-03-19T07:15:16.388Z,53.90
2019-03-19T07:17:42.701Z,54.40
2019-03-19T07:20:12.134Z,54.00
2019-03-19T07:22:38.572Z,53.30
2019-03-19T07:25:05.906Z,52.60
2019-03-19T07:27:32.238Z,51.50
2019-03-19T07:29:58.475Z,51.90
2019-03-19T07:32:24.816Z,52.20
2019-03-19T07:34:51.148Z,51.70
2019-03-19T07:37:17.484Z,51.50
2019-03-19T07:39:43.719Z,50.50
2019-03-19T07:42:10.061Z,50.50
2019-03-19T07:44:36.391Z,49.80
2019-03-19T07:47:02.838Z,49.30
2019-03-19T07:49:29.131Z,48.90
2019-03-19T07:51:55.386Z,47.90
2019-03-19T07:54:21.597Z,48.10
2019-03-19T07:56:47.997Z,48.00
2019-03-19T07:59:14.229Z,48.30
2019-03-19T08:01:40.449Z,48.00
2019-03-19T08:04:06.685Z,47.90
2019-03-19T08:06:33.021Z,46.90
2019-03-19T08:09:00.240Z,45.80
2019-03-19T08:11:26.453Z,44.10
2019-03-19T08:13:52.893Z,44.20
2019-03-19T08:16:27.182Z,44.90
2019-03-19T08:18:48.530Z,45.20
2019-03-19T08:21:14.821Z,45.40
2019-03-19T08:23:41.051Z,45.00
2019-03-19T08:26:07.293Z,45.00
2019-03-19T08:28:33.840Z,44.80
2019-03-19T08:31:00.141Z,44.30
2019-03-19T08:33:26.467Z,43.90
2019-03-19T08:35:52.910Z,43.70
2019-03-19T08:38:19.125Z,42.80
2019-03-19T08:40:45.361Z,42.00
2019-03-19T08:43:11.605Z,42.30
2019-03-19T08:45:37.824Z,42.00
2019-03-19T08:48:04.044Z,43.00
2019-03-19T08:50:30.389Z,42.60
2019-03-19T08:52:56.603Z,42.20
2019-03-19T08:55:22.925Z,42.10
2019-03-19T08:57:49.356Z,42.30
2019-03-19T09:00:24.295Z,41.90
2019-03-19T09:02:50.605Z,42.90
2019-03-19T09:05:17.013Z,42.50
2019-03-19T09:07:43.323Z,42.30
2019-03-19T09:10:11.445Z,42.90
2019-03-19T09:12:38.803Z,43.40
2019-03-19T09:15:08.185Z,43.20
2019-03-19T09:17:34.396Z,42.30
2019-03-19T09:20:00.731Z,41.60
2019-03-19T09:22:29.791Z,41.90
2019-03-19T09:24:55.173Z,41.80
2019-03-19T09:27:21.431Z,41.40
2019-03-19T09:29:47.642Z,40.50
2019-03-19T09:32:13.854Z,40.60
2019-03-19T09:34:40.169Z,40.40
2019-03-19T09:37:08.302Z,39.70
2019-03-19T09:39:34.626Z,38.00
2019-03-19T09:42:00.949Z,37.30
2019-03-19T09:44:27.181Z,36.60
2019-03-19T09:46:53.523Z,36.90
2019-03-19T09:49:21.128Z,37.90
2019-03-19T09:51:47.473Z,37.90
2019-03-19T09:54:13.694Z,38.70
2019-03-19T09:56:40.022Z,37.80
2019-03-19T09:59:06.389Z,36.70
2019-03-19T10:01:32.617Z,37.40
2019-03-19T10:03:58.937Z,38.10
2019-03-19T10:06:25.148Z,36.30
2019-03-19T10:08:51.365Z,35.70
2019-03-19T10:11:17.610Z,37.60
2019-03-19T10:13:43.927Z,36.70
2019-03-19T10:16:10.148Z,36.40
2019-03-19T10:18:36.400Z,35.40
2019-03-19T10:21:02.906Z,35.00
2019-03-19T10:23:29.121Z,34.90
2019-03-19T10:25:55.460Z,35.10
2019-03-19T10:28:21.682Z,34.00
2019-03-19T10:30:48.004Z,33.20
2019-03-19T10:33:15.965Z,33.00
2019-03-19T10:35:43.293Z,33.40
2019-03-19T10:38:09.525Z,33.10
2019-03-19T10:40:35.865Z,33.10
2019-03-19T10:43:02.173Z,33.10
2019-03-19T10:45:28.398Z,32.90
2019-03-19T10:47:54.738Z,32.70
2019-03-19T10:50:25.230Z,32.10
2019-03-19T10:52:52.952Z,31.10
2019-03-19T10:55:19.302Z,29.90
2019-03-19T10:57:45.504Z,29.50
2019-03-19T11:00:23.057Z,29.20
2019-03-19T11:02:49.774Z,29.40
2019-03-19T11:05:16.797Z,30.20
2019-03-19T11:07:43.405Z,32.60
2019-03-19T11:10:13.821Z,32.20
2019-03-19T11:12:40.156Z,30.00
2019-03-19T11:15:17.352Z,30.00
2019-03-19T11:17:44.857Z,31.60
2019-03-19T11:20:15.981Z,32.10
2019-03-19T11:22:42.443Z,30.30
2019-03-19T11:25:15.062Z,32.10
2019-03-19T11:27:41.984Z,32.10
2019-03-19T11:30:11.556Z,32.20
2019-03-19T11:32:38.041Z,29.50
2019-03-19T11:35:06.957Z,30.00
2019-03-19T11:37:33.196Z,28.90
2019-03-19T11:39:59.406Z,30.50
2019-03-19T11:42:25.717Z,30.60
2019-03-19T11:44:53.029Z,30.30
2019-03-19T11:47:19.240Z,29.00
2019-03-19T11:49:45.456Z,29.80
2019-03-19T11:52:11.789Z,30.50
2019-03-19T11:54:38.005Z,30.40
2019-03-19T11:57:04.220Z,30.30
2019-03-19T11:59:30.533Z,28.20
2019-03-19T12:01:56.737Z,27.70
2019-03-19T12:04:23.021Z,29.40
2019-03-19T12:06:49.266Z,29.20
2019-03-19T12:09:15.578Z,28.80
2019-03-19T12:11:41.800Z,29.40
2019-03-19T12:14:08.042Z,30.00
2019-03-19T12:16:34.256Z,29.90
2019-03-19T12:19:00.461Z,29.90
2019-03-19T12:21:26.705Z,30.50
2019-03-19T12:23:52.921Z,28.90
2019-03-19T12:26:19.143Z,29.60
2019-03-19T12:28:45.478Z,30.90
2019-03-19T12:31:11.685Z,31.60
2019-03-19T12:33:41.133Z,31.70
2019-03-19T12:36:06.031Z,29.90
2019-03-19T12:38:32.236Z,30.00
2019-03-19T12:40:58.458Z,29.80
2019-03-19T12:43:24.869Z,30.50
2019-03-19T12:45:51.077Z,30.30
2019-03-19T12:48:17.283Z,30.20
2019-03-19T12:50:43.530Z,29.90
2019-03-19T12:53:09.737Z,29.20
2019-03-19T12:55:35.942Z,29.80
2019-03-19T12:58:02.187Z,29.70
2019-03-19T13:00:34.250Z,29.70
2019-03-19T13:02:56.612Z,31.20
2019-03-19T13:05:22.894Z,31.20
2019-03-19T13:07:49.145Z,30.20
2019-03-19T13:10:18.398Z,30.70
2019-03-19T13:12:45.001Z,30.60
2019-03-19T13:15:13.412Z,30.00
2019-03-19T13:17:39.629Z,29.80
2019-03-19T13:20:08.673Z,29.90
2019-03-19T13:22:34.985Z,29.90
2019-03-19T13:25:01.296Z,30.70
2019-03-19T13:27:27.620Z,29.90
2019-03-19T13:29:53.825Z,30.30
2019-03-19T13:32:20.049Z,29.90
2019-03-19T13:34:46.365Z,29.90
2019-03-19T13:37:12.574Z,29.70
2019-03-19T13:39:38.780Z,30.60
2019-03-19T13:42:05.021Z,30.70
2019-03-19T13:44:31.240Z,29.90
2019-03-19T13:46:57.453Z,29.50
2019-03-19T13:49:23.692Z,30.00
2019-03-19T13:51:49.895Z,30.00
2019-03-19T13:54:16.836Z,29.60
2019-03-19T13:56:43.145Z,30.10
2019-03-19T13:59:09.469Z,29.70
2019-03-19T14:01:35.692Z,31.50
2019-03-19T14:04:01.940Z,29.80
2019-03-19T14:06:28.150Z,30.50
2019-03-19T14:08:54.362Z,30.00
2019-03-19T14:11:20.619Z,30.10
2019-03-19T14:13:46.925Z,29.60
2019-03-19T14:16:13.137Z,31.00
2019-03-19T14:18:39.381Z,29.40
2019-03-19T14:21:05.588Z,30.00
2019-03-19T14:23:32.894Z,30.80
2019-03-19T14:26:00.145Z,31.70
2019-03-19T14:28:26.365Z,30.00
2019-03-19T14:30:52.581Z,29.90
2019-03-19T14:33:18.829Z,30.10
2019-03-19T14:35:45.104Z,29.90
2019-03-19T14:38:11.326Z,30.00
2019-03-19T14:40:37.676Z,31.70
2019-03-19T14:43:04.194Z,32.20
2019-03-19T14:45:30.504Z,31.60
2019-03-19T14:47:56.825Z,31.10
2019-03-19T14:50:24.241Z,32.10
2019-03-19T14:52:50.462Z,32.70
2019-03-19T14:55:16.710Z,31.40
2019-03-19T14:57:43.132Z,31.60
2019-03-19T15:00:13.346Z,32.80
2019-03-19T15:02:39.753Z,32.80
2019-03-19T15:05:07.264Z,32.60
2019-03-19T15:07:33.478Z,32.80
2019-03-19T15:09:59.717Z,32.70
2019-03-19T15:12:25.929Z,33.20
2019-03-19T15:14:52.141Z,34.80
2019-03-19T15:17:18.361Z,34.80
2019-03-19T15:19:44.573Z,33.00
2019-03-19T15:22:10.789Z,32.50
2019-03-19T15:24:37.045Z,33.50
2019-03-19T15:27:03.258Z,32.80
2019-03-19T15:29:29.577Z,33.60
2019-03-19T15:31:55.828Z,35.60
2019-03-19T15:34:22.035Z,35.00
2019-03-19T15:36:48.257Z,35.50
2019-03-19T15:39:14.500Z,34.40
2019-03-19T15:41:40.719Z,35.40
2019-03-19T15:44:06.922Z,35.80
2019-03-19T15:46:33.148Z,34.60
2019-03-19T15:49:00.451Z,35.10
2019-03-19T15:51:26.869Z,35.10
2019-03-19T15:53:53.105Z,35.30
2019-03-19T15:56:19.345Z,34.10
2019-03-19T15:58:45.645Z,34.80
2019-03-19T16:01:11.890Z,34.60
2019-03-19T16:03:38.101Z,37.00
2019-03-19T16:06:04.317Z,36.70
2019-03-19T16:08:30.548Z,37.30
2019-03-19T16:10:56.760Z,36.70
2019-03-19T16:13:22.972Z,36.90
2019-03-19T16:15:49.224Z,38.00
2019-03-19T16:18:15.532Z,37.50
2019-03-19T16:20:41.745Z,36.80
2019-03-19T16:23:07.970Z,37.30
2019-03-19T16:25:34.181Z,36.80
2019-03-19T16:28:00.419Z,38.10
2019-03-19T16:30:26.837Z,38.50
2019-03-19T16:32:53.041Z,38.60
2019-03-19T16:35:19.253Z,38.40
2019-03-19T16:37:45.681Z,37.60
2019-03-19T16:40:19.083Z,37.40
2019-03-19T16:42:46.701Z,37.10
2019-03-19T16:45:13.008Z,38.40
2019-03-19T16:47:39.221Z,37.90
2019-03-19T16:50:18.655Z,37.60
2019-03-19T16:52:44.965Z,37.40
2019-03-19T16:55:18.651Z,38.00
2019-03-19T16:57:45.060Z,37.80
2019-03-19T17:00:29.013Z,38.50
2019-03-19T17:02:55.249Z,39.10
2019-03-19T17:05:21.472Z,38.80
2019-03-19T17:07:47.773Z,38.60
2019-03-19T17:10:22.756Z,38.60
2019-03-19T17:12:48.968Z,39.40
2019-03-19T17:15:15.769Z,39.30
2019-03-19T17:17:43.005Z,39.20
2019-03-19T17:20:11.180Z,39.80
2019-03-19T17:22:37.357Z,40.40
2019-03-19T17:25:07.089Z,41.30
2019-03-19T17:27:33.337Z,42.10
2019-03-19T17:29:59.554Z,42.00
2019-03-19T17:32:25.797Z,41.50
2019-03-19T17:34:52.004Z,43.50
2019-03-19T17:37:18.241Z,43.20
2019-03-19T17:39:44.492Z,42.50
2019-03-19T17:42:10.745Z,42.40
2019-03-19T17:44:36.976Z,42.80
2019-03-19T17:47:03.314Z,43.10
2019-03-19T17:49:29.522Z,43.20
2019-03-19T17:51:55.801Z,43.30
2019-03-19T17:54:22.050Z,43.10
2019-03-19T17:56:49.786Z,42.70
2019-03-19T17:59:16.094Z,42.50
2019-03-19T18:01:42.318Z,42.40
2019-03-19T18:04:08.624Z,43.60
2019-03-19T18:06:35.841Z,44.10
2019-03-19T18:09:05.373Z,44.10
2019-03-19T18:11:31.585Z,43.40
2019-03-19T18:13:57.831Z,42.30
2019-03-19T18:16:24.174Z,42.50
2019-03-19T18:18:50.387Z,43.70
2019-03-19T18:21:16.689Z,44.80
2019-03-19T18:23:42.982Z,45.20
2019-03-19T18:26:10.344Z,45.40
2019-03-19T18:28:36.609Z,45.60
2019-03-19T18:31:03.064Z,46.30
2019-03-19T18:33:29.290Z,45.40
2019-03-19T18:35:56.613Z,45.70
2019-03-19T18:38:23.209Z,45.30
2019-03-19T18:40:49.424Z,45.80
2019-03-19T18:43:15.635Z,45.90
2019-03-19T18:45:41.912Z,45.60
2019-03-19T18:48:08.221Z,46.20
2019-03-19T18:50:34.440Z,46.00
2019-03-19T18:53:00.852Z,45.60
2019-03-19T18:55:27.067Z,45.50
2019-03-19T18:57:53.283Z,46.70
2019-03-19T19:00:20.846Z,47.50
2019-03-19T19:02:50.342Z,48.40
2019-03-19T19:05:22.353Z,47.30
2019-03-19T19:07:48.559Z,47.20
2019-03-19T19:10:15.777Z,48.20
2019-03-19T19:12:42.121Z,48.30
2019-03-19T19:15:10.938Z,49.50
2019-03-19T19:17:37.156Z,48.90
2019-03-19T19:20:06.904Z,49.10
2019-03-19T19:22:33.113Z,48.90
2019-03-19T19:24:59.401Z,48.20
2019-03-19T19:27:25.652Z,48.10
2019-03-19T19:29:51.914Z,47.70
2019-03-19T19:32:19.150Z,47.40
2019-03-19T19:34:45.409Z,48.20
2019-03-19T19:37:11.620Z,46.90
2019-03-19T19:39:37.839Z,47.60
2019-03-19T19:42:04.195Z,48.10
2019-03-19T19:44:30.506Z,48.00
2019-03-19T19:46:56.716Z,48.20
2019-03-19T19:49:24.040Z,48.70
2019-03-19T19:51:50.304Z,48.80
2019-03-19T19:54:16.846Z,48.90
2019-03-19T19:56:44.217Z,48.90
2019-03-19T19:59:10.908Z,48.90
2019-03-19T20:01:37.266Z,48.30
2019-03-19T20:04:03.675Z,46.90
2019-03-19T20:06:50.065Z,48.20
2019-03-19T20:09:16.441Z,48.30
2019-03-19T20:11:42.694Z,49.20
2019-03-19T20:14:09.077Z,49.60
2019-03-19T20:16:35.343Z,50.40
2019-03-19T20:19:01.836Z,49.70
2019-03-19T20:21:28.148Z,49.20
2019-03-19T20:23:54.411Z,48.70
2019-03-19T20:26:20.713Z,49.00
2019-03-19T20:28:46.993Z,48.70
2019-03-19T20:31:13.337Z,48.50
2019-03-19T20:33:39.549Z,48.30
2019-03-19T20:36:05.769Z,48.20
2019-03-19T20:38:32.001Z,49.20
2019-03-19T20:40:58.208Z,49.90
2019-03-19T20:43:24.463Z,51.50
2019-03-19T20:45:51.883Z,51.30
2019-03-19T20:48:18.095Z,51.50
2019-03-19T20:50:44.312Z,51.50
2019-03-19T20:53:10.571Z,50.30
2019-03-19T20:55:36.881Z,51.40
2019-03-19T20:58:03.297Z,52.80
2019-03-19T21:00:29.545Z,53.80
2019-03-19T21:02:55.752Z,51.20
2019-03-19T21:05:21.970Z,52.40
2019-03-19T21:07:48.209Z,52.50
2019-03-19T21:10:18.527Z,52.20
2019-03-19T21:12:44.946Z,52.10
2019-03-19T21:15:19.957Z,51.90
2019-03-19T21:17:46.866Z,51.70
2019-03-19T21:20:13.087Z,50.20
2019-03-19T21:22:39.427Z,50.80
2019-03-19T21:25:05.763Z,49.70
2019-03-19T21:27:32.229Z,49.60
2019-03-19T21:29:58.535Z,52.40
2019-03-19T21:32:24.987Z,51.30
2019-03-19T21:34:51.290Z,52.80
2019-03-19T21:37:17.541Z,51.70
2019-03-19T21:39:43.760Z,51.00
2019-03-19T21:42:10.069Z,51.70
2019-03-19T21:44:36.304Z,49.90
2019-03-19T21:47:02.719Z,50.30
2019-03-19T21:49:29.033Z,52.10
2019-03-19T21:51:55.272Z,50.50
2019-03-19T21:54:21.497Z,51.00
2019-03-19T21:56:47.725Z,50.80
2019-03-19T21:59:13.950Z,49.90
2019-03-19T22:01:40.357Z,48.80
2019-03-19T22:04:07.667Z,48.80
2019-03-19T22:06:34.005Z,48.80
2019-03-19T22:09:00.224Z,49.20
2019-03-19T22:11:28.341Z,49.50
2019-03-19T22:13:54.577Z,50.30
2019-03-19T22:16:20.781Z,51.10
2019-03-19T22:18:47.000Z,52.70
2019-03-19T22:21:13.416Z,52.70
2019-03-19T22:23:39.644Z,53.30
2019-03-19T22:26:05.888Z,53.90
2019-03-19T22:28:32.304Z,54.30
2019-03-19T22:30:59.537Z,55.00
2019-03-19T22:33:25.745Z,55.30
2019-03-19T22:35:52.973Z,55.10
2019-03-19T22:38:19.285Z,55.00
2019-03-19T22:40:45.505Z,54.30
2019-03-19T22:43:11.753Z,54.00
2019-03-19T22:45:37.978Z,53.60
2019-03-19T22:48:04.202Z,53.40
2019-03-19T22:50:30.440Z,53.10
2019-03-19T22:52:56.648Z,55.20
2019-03-19T22:55:28.887Z,57.80
2019-03-19T22:57:51.017Z,59.30
2019-03-19T23:00:36.477Z,60.10
2019-03-19T23:03:05.700Z,61.20
2019-03-19T23:05:31.924Z,62.90
2019-03-19T23:07:59.246Z,64.60
2019-03-19T23:10:25.594Z,67.50
2019-03-19T23:12:52.005Z,69.00
2019-03-19T23:15:18.629Z,70.30
2019-03-19T23:17:44.949Z,70.70
2019-03-19T23:20:12.161Z,71.30
2019-03-19T23:22:38.375Z,71.20
2019-03-19T23:25:06.121Z,71.30
2019-03-19T23:27:32.329Z,71.40
2019-03-19T23:29:59.541Z,71.40
2019-03-19T23:32:25.785Z,70.70
2019-03-19T23:34:52.107Z,70.00
2019-03-19T23:37:19.416Z,69.30
2019-03-19T23:39:45.741Z,69.50
2019-03-19T23:42:12.063Z,70.30
2019-03-19T23:44:38.329Z,70.10
2019-03-19T23:47:04.635Z,70.50
2019-03-19T23:49:30.909Z,70.60
2019-03-19T23:51:57.125Z,70.30
2019-03-19T23:54:23.457Z,70.30
2019-03-19T23:56:50.771Z,69.40
2019-03-19T23:59:16.986Z,70.60
